sensor_id;sensor_type;location;lat;lon;timestamp;pressure;altitude;pressure_sealevel;temperature;humidity
62703;BME280;66022;50.448;18.122;2023-04-22T00:00:58;99098.36;;;10.46;58.91
62703;BME280;66022;50.448;18.122;2023-04-22T00:05:12;99096.69;;;10.35;58.92
62703;BME280;66022;50.448;18.122;2023-04-22T00:13:40;99094.80;;;10.18;59.72
62703;BME280;66022;50.448;18.122;2023-04-22T00:17:54;99093.28;;;10.11;60.19
62703;BME280;66022;50.448;18.122;2023-04-22T00:22:08;99092.05;;;10.06;59.30
62703;BME280;66022;50.448;18.122;2023-04-22T00:26:22;99090.22;;;9.97;60.52
62703;BME280;66022;50.448;18.122;2023-04-22T00:30:36;99089.12;;;9.94;60.02
62703;BME280;66022;50.448;18.122;2023-04-22T00:34:50;99087.41;;;9.87;61.00
62703;BME280;66022;50.448;18.122;2023-04-22T00:39:04;99085.41;;;9.76;61.44
62703;BME280;66022;50.448;18.122;2023-04-22T00:43:18;99083.36;;;9.67;61.67
62703;BME280;66022;50.448;18.122;2023-04-22T00:47:32;99082.76;;;9.58;61.28
62703;BME280;66022;50.448;18.122;2023-04-22T00:51:46;99081.64;;;9.52;61.15
62703;BME280;66022;50.448;18.122;2023-04-22T00:56:00;99079.86;;;9.44;61.60
62703;BME280;66022;50.448;18.122;2023-04-22T01:00:14;99078.63;;;9.39;61.92
62703;BME280;66022;50.448;18.122;2023-04-22T01:04:28;99078.61;;;9.36;61.85
62703;BME280;66022;50.448;18.122;2023-04-22T01:08:42;99079.78;;;9.27;62.92
62703;BME280;66022;50.448;18.122;2023-04-22T01:12:56;99082.25;;;9.21;63.43
62703;BME280;66022;50.448;18.122;2023-04-22T01:17:10;99083.50;;;9.09;65.35
62703;BME280;66022;50.448;18.122;2023-04-22T01:21:25;99086.25;;;9.00;64.00
62703;BME280;66022;50.448;18.122;2023-04-22T01:25:38;99089.42;;;8.93;64.13
62703;BME280;66022;50.448;18.122;2023-04-22T01:29:52;99091.10;;;8.87;64.37
62703;BME280;66022;50.448;18.122;2023-04-22T01:34:06;99092.79;;;8.82;64.53
62703;BME280;66022;50.448;18.122;2023-04-22T01:38:20;99093.86;;;8.73;65.18
62703;BME280;66022;50.448;18.122;2023-04-22T01:42:34;99095.36;;;8.69;64.92
62703;BME280;66022;50.448;18.122;2023-04-22T01:46:48;99096.78;;;8.65;66.25
62703;BME280;66022;50.448;18.122;2023-04-22T01:51:02;99098.99;;;8.64;64.99
62703;BME280;66022;50.448;18.122;2023-04-22T01:55:16;99100.78;;;8.60;65.11
62703;BME280;66022;50.448;18.122;2023-04-22T01:59:30;99102.04;;;8.55;66.03
62703;BME280;66022;50.448;18.122;2023-04-22T02:03:44;99101.78;;;8.50;66.00
62703;BME280;66022;50.448;18.122;2023-04-22T02:07:58;99102.11;;;8.46;66.41
62703;BME280;66022;50.448;18.122;2023-04-22T02:12:12;99101.31;;;8.45;65.73
62703;BME280;66022;50.448;18.122;2023-04-22T02:16:26;99100.34;;;8.38;68.41
62703;BME280;66022;50.448;18.122;2023-04-22T02:20:40;99100.53;;;8.38;65.20
62703;BME280;66022;50.448;18.122;2023-04-22T02:24:54;99099.47;;;8.36;65.47
62703;BME280;66022;50.448;18.122;2023-04-22T02:29:08;99097.85;;;8.33;65.22
62703;BME280;66022;50.448;18.122;2023-04-22T02:33:22;99095.59;;;8.31;65.23
62703;BME280;66022;50.448;18.122;2023-04-22T02:37:36;99093.13;;;8.29;65.88
62703;BME280;66022;50.448;18.122;2023-04-22T02:41:50;99091.61;;;8.29;65.28
62703;BME280;66022;50.448;18.122;2023-04-22T02:46:04;99090.26;;;8.25;69.08
62703;BME280;66022;50.448;18.122;2023-04-22T02:50:18;99090.05;;;8.23;66.04
62703;BME280;66022;50.448;18.122;2023-04-22T02:54:32;99088.65;;;8.21;65.31
62703;BME280;66022;50.448;18.122;2023-04-22T02:58:46;99088.11;;;8.18;66.62
62703;BME280;66022;50.448;18.122;2023-04-22T03:03:00;99086.80;;;8.17;67.35
62703;BME280;66022;50.448;18.122;2023-04-22T03:07:16;99086.10;;;8.14;68.73
62703;BME280;66022;50.448;18.122;2023-04-22T03:11:28;99084.66;;;8.10;67.99
62703;BME280;66022;50.448;18.122;2023-04-22T03:15:42;99083.25;;;8.03;68.36
62703;BME280;66022;50.448;18.122;2023-04-22T03:19:56;99083.07;;;7.98;68.15
62703;BME280;66022;50.448;18.122;2023-04-22T03:24:10;99082.26;;;7.95;67.58
62703;BME280;66022;50.448;18.122;2023-04-22T03:28:27;99081.73;;;7.90;67.40
62703;BME280;66022;50.448;18.122;2023-04-22T03:32:38;99082.40;;;7.90;67.45
62703;BME280;66022;50.448;18.122;2023-04-22T03:36:52;99082.05;;;7.88;68.35
62703;BME280;66022;50.448;18.122;2023-04-22T03:41:06;99081.87;;;7.88;67.42
62703;BME280;66022;50.448;18.122;2023-04-22T03:45:20;99081.64;;;7.87;66.36
62703;BME280;66022;50.448;18.122;2023-04-22T03:49:34;99081.73;;;7.86;66.41
62703;BME280;66022;50.448;18.122;2023-04-22T03:53:48;99083.09;;;7.85;67.49
62703;BME280;66022;50.448;18.122;2023-04-22T03:58:05;99083.91;;;7.81;67.87
62703;BME280;66022;50.448;18.122;2023-04-22T04:02:19;99084.80;;;7.82;67.25
62703;BME280;66022;50.448;18.122;2023-04-22T04:06:30;99085.52;;;7.78;70.71
62703;BME280;66022;50.448;18.122;2023-04-22T04:10:44;99085.85;;;7.79;68.04
62703;BME280;66022;50.448;18.122;2023-04-22T04:14:58;99086.40;;;7.81;68.07
62703;BME280;66022;50.448;18.122;2023-04-22T04:19:12;99086.88;;;7.83;67.52
62703;BME280;66022;50.448;18.122;2023-04-22T04:23:26;99087.13;;;7.89;67.02
62703;BME280;66022;50.448;18.122;2023-04-22T04:27:40;99087.05;;;7.95;67.79
62703;BME280;66022;50.448;18.122;2023-04-22T04:31:54;99087.08;;;8.04;66.74
62703;BME280;66022;50.448;18.122;2023-04-22T04:36:11;99087.14;;;8.11;67.99
62703;BME280;66022;50.448;18.122;2023-04-22T04:40:22;99086.85;;;8.29;64.38
62703;BME280;66022;50.448;18.122;2023-04-22T04:44:36;99086.54;;;8.50;63.67
62703;BME280;66022;50.448;18.122;2023-04-22T04:48:50;99086.60;;;8.68;63.69
62703;BME280;66022;50.448;18.122;2023-04-22T04:53:04;99086.22;;;8.88;63.21
62703;BME280;66022;50.448;18.122;2023-04-22T04:57:18;99085.80;;;9.06;62.66
62703;BME280;66022;50.448;18.122;2023-04-22T05:01:32;99086.36;;;9.29;62.01
62703;BME280;66022;50.448;18.122;2023-04-22T05:05:46;99087.13;;;9.50;61.80
62703;BME280;66022;50.448;18.122;2023-04-22T05:10:00;99087.68;;;9.71;62.16
62703;BME280;66022;50.448;18.122;2023-04-22T05:14:14;99087.97;;;9.93;61.45
62703;BME280;66022;50.448;18.122;2023-04-22T05:18:28;99089.14;;;10.08;62.39
62703;BME280;66022;50.448;18.122;2023-04-22T05:22:42;99089.50;;;10.28;61.20
62703;BME280;66022;50.448;18.122;2023-04-22T05:26:56;99090.69;;;10.43;62.84
62703;BME280;66022;50.448;18.122;2023-04-22T05:31:10;99091.92;;;10.62;61.86
62703;BME280;66022;50.448;18.122;2023-04-22T05:35:24;99092.66;;;10.82;61.54
62703;BME280;66022;50.448;18.122;2023-04-22T05:39:39;99093.21;;;11.05;60.99
62703;BME280;66022;50.448;18.122;2023-04-22T05:43:52;99093.81;;;11.36;60.14
62703;BME280;66022;50.448;18.122;2023-04-22T05:48:06;99094.39;;;11.95;54.79
62703;BME280;66022;50.448;18.122;2023-04-22T05:52:20;99093.50;;;12.98;50.28
62703;BME280;66022;50.448;18.122;2023-04-22T05:56:34;99092.63;;;14.05;46.91
62703;BME280;66022;50.448;18.122;2023-04-22T06:00:48;99091.80;;;15.23;45.48
62703;BME280;66022;50.448;18.122;2023-04-22T06:05:02;99091.19;;;16.39;43.96
62703;BME280;66022;50.448;18.122;2023-04-22T06:09:16;99091.13;;;17.42;41.82
62703;BME280;66022;50.448;18.122;2023-04-22T06:13:30;99091.82;;;18.41;41.98
62703;BME280;66022;50.448;18.122;2023-04-22T06:17:44;99092.08;;;19.27;37.48
62703;BME280;66022;50.448;18.122;2023-04-22T06:21:58;99091.85;;;20.03;40.59
62703;BME280;66022;50.448;18.122;2023-04-22T06:26:12;99091.24;;;20.57;33.77
62703;BME280;66022;50.448;18.122;2023-04-22T06:30:26;99090.56;;;21.15;40.05
62703;BME280;66022;50.448;18.122;2023-04-22T06:34:40;99089.76;;;21.67;40.05
62703;BME280;66022;50.448;18.122;2023-04-22T06:38:54;99088.95;;;22.01;40.15
62703;BME280;66022;50.448;18.122;2023-04-22T06:43:08;99089.07;;;22.40;40.51
62703;BME280;66022;50.448;18.122;2023-04-22T06:47:22;99089.87;;;22.68;39.46
62703;BME280;66022;50.448;18.122;2023-04-22T06:51:36;99089.90;;;22.94;40.49
62703;BME280;66022;50.448;18.122;2023-04-22T06:55:50;99089.43;;;23.09;33.17
62703;BME280;66022;50.448;18.122;2023-04-22T07:00:04;99089.03;;;23.22;39.54
62703;BME280;66022;50.448;18.122;2023-04-22T07:04:18;99089.37;;;23.34;39.86
62703;BME280;66022;50.448;18.122;2023-04-22T07:08:32;99090.09;;;23.27;39.38
62703;BME280;66022;50.448;18.122;2023-04-22T07:12:46;99091.66;;;23.35;39.39
62703;BME280;66022;50.448;18.122;2023-04-22T07:17:00;99092.63;;;23.31;37.63
62703;BME280;66022;50.448;18.122;2023-04-22T07:21:14;99093.80;;;23.29;39.29
62703;BME280;66022;50.448;18.122;2023-04-22T07:25:28;99094.78;;;23.29;39.90
62703;BME280;66022;50.448;18.122;2023-04-22T07:29:42;99096.11;;;23.22;39.52
62703;BME280;66022;50.448;18.122;2023-04-22T07:33:56;99096.46;;;23.19;40.82
62703;BME280;66022;50.448;18.122;2023-04-22T07:38:10;99097.39;;;23.10;39.36
62703;BME280;66022;50.448;18.122;2023-04-22T07:42:24;99098.77;;;23.13;39.38
62703;BME280;66022;50.448;18.122;2023-04-22T07:46:38;99099.53;;;23.07;33.56
62703;BME280;66022;50.448;18.122;2023-04-22T07:50:52;99099.59;;;23.04;38.87
62703;BME280;66022;50.448;18.122;2023-04-22T07:55:06;99100.56;;;23.01;37.44
62703;BME280;66022;50.448;18.122;2023-04-22T07:59:20;99100.83;;;22.96;38.66
62703;BME280;66022;50.448;18.122;2023-04-22T08:03:34;99100.73;;;23.01;38.95
62703;BME280;66022;50.448;18.122;2023-04-22T08:07:48;99100.28;;;23.00;37.47
62703;BME280;66022;50.448;18.122;2023-04-22T08:12:02;99099.42;;;23.00;39.75
62703;BME280;66022;50.448;18.122;2023-04-22T08:16:16;99099.66;;;22.92;32.87
62703;BME280;66022;50.448;18.122;2023-04-22T08:20:30;99099.33;;;22.95;37.19
62703;BME280;66022;50.448;18.122;2023-04-22T08:24:44;99099.17;;;22.97;38.95
62703;BME280;66022;50.448;18.122;2023-04-22T08:28:59;99098.36;;;22.93;36.19
62703;BME280;66022;50.448;18.122;2023-04-22T08:33:15;99098.46;;;23.00;36.92
62703;BME280;66022;50.448;18.122;2023-04-22T08:37:26;99097.73;;;23.08;36.30
62703;BME280;66022;50.448;18.122;2023-04-22T08:41:40;99096.91;;;23.18;37.65
62703;BME280;66022;50.448;18.122;2023-04-22T08:45:54;99095.43;;;23.23;28.92
62703;BME280;66022;50.448;18.122;2023-04-22T08:50:08;99093.86;;;23.30;35.04
62703;BME280;66022;50.448;18.122;2023-04-22T08:54:22;99092.42;;;23.43;35.31
62703;BME280;66022;50.448;18.122;2023-04-22T08:58:36;99091.28;;;23.46;33.31
62703;BME280;66022;50.448;18.122;2023-04-22T09:02:50;99090.02;;;23.59;35.78
62703;BME280;66022;50.448;18.122;2023-04-22T09:07:04;99089.97;;;23.67;33.47
62703;BME280;66022;50.448;18.122;2023-04-22T09:11:18;99088.79;;;23.78;31.72
62703;BME280;66022;50.448;18.122;2023-04-22T09:15:32;99088.56;;;23.85;30.60
62703;BME280;66022;50.448;18.122;2023-04-22T09:19:55;99087.23;;;23.92;30.51
62703;BME280;66022;50.448;18.122;2023-04-22T09:24:00;99086.55;;;24.01;35.41
62703;BME280;66022;50.448;18.122;2023-04-22T09:28:17;99085.08;;;24.02;34.29
62703;BME280;66022;50.448;18.122;2023-04-22T09:32:28;99084.11;;;24.06;32.16
62703;BME280;66022;50.448;18.122;2023-04-22T09:36:42;99081.37;;;24.00;30.07
62703;BME280;66022;50.448;18.122;2023-04-22T09:40:56;99079.58;;;24.03;31.84
62703;BME280;66022;50.448;18.122;2023-04-22T09:45:10;99077.70;;;24.03;31.21
62703;BME280;66022;50.448;18.122;2023-04-22T09:49:25;99076.09;;;23.94;32.36
62703;BME280;66022;50.448;18.122;2023-04-22T09:53:38;99072.53;;;23.95;33.08
62703;BME280;66022;50.448;18.122;2023-04-22T09:57:53;99069.11;;;23.98;32.88
62703;BME280;66022;50.448;18.122;2023-04-22T10:02:06;99065.61;;;24.01;33.92
62703;BME280;66022;50.448;18.122;2023-04-22T10:06:20;99063.28;;;23.96;27.74
62703;BME280;66022;50.448;18.122;2023-04-22T10:10:34;99059.09;;;23.98;29.50
62703;BME280;66022;50.448;18.122;2023-04-22T10:14:48;99055.44;;;23.93;35.51
62703;BME280;66022;50.448;18.122;2023-04-22T10:19:03;99051.88;;;23.83;31.97
62703;BME280;66022;50.448;18.122;2023-04-22T10:23:20;99047.90;;;23.72;33.17
62703;BME280;66022;50.448;18.122;2023-04-22T10:27:30;99045.65;;;23.66;34.85
62703;BME280;66022;50.448;18.122;2023-04-22T10:31:54;99041.93;;;23.65;34.12
62703;BME280;66022;50.448;18.122;2023-04-22T10:40:16;99034.55;;;23.69;35.68
62703;BME280;66022;50.448;18.122;2023-04-22T10:44:27;99029.69;;;23.71;31.58
62703;BME280;66022;50.448;18.122;2023-04-22T10:52:58;99022.99;;;23.42;31.40
62703;BME280;66022;50.448;18.122;2023-04-22T10:57:09;99019.67;;;23.26;34.64
62703;BME280;66022;50.448;18.122;2023-04-22T11:01:22;99015.72;;;23.19;33.95
62703;BME280;66022;50.448;18.122;2023-04-22T11:05:36;99013.95;;;23.20;34.22
62703;BME280;66022;50.448;18.122;2023-04-22T11:10:00;99010.97;;;23.21;34.01
62703;BME280;66022;50.448;18.122;2023-04-22T11:14:04;99008.01;;;23.23;32.02
62703;BME280;66022;50.448;18.122;2023-04-22T11:18:19;99005.92;;;23.14;33.99
62703;BME280;66022;50.448;18.122;2023-04-22T11:22:35;99004.05;;;23.21;36.11
62703;BME280;66022;50.448;18.122;2023-04-22T11:26:46;99001.72;;;23.21;31.53
62703;BME280;66022;50.448;18.122;2023-04-22T11:31:04;98997.96;;;23.25;35.82
62703;BME280;66022;50.448;18.122;2023-04-22T11:35:16;98993.97;;;23.33;36.70
62703;BME280;66022;50.448;18.122;2023-04-22T11:43:46;98984.63;;;23.42;34.67
62703;BME280;66022;50.448;18.122;2023-04-22T11:47:57;98980.73;;;23.41;36.04
62703;BME280;66022;50.448;18.122;2023-04-22T11:52:10;98976.61;;;23.45;33.49
62703;BME280;66022;50.448;18.122;2023-04-22T11:56:24;98974.14;;;23.39;30.40
62703;BME280;66022;50.448;18.122;2023-04-22T12:00:39;98971.11;;;23.41;36.59
62703;BME280;66022;50.448;18.122;2023-04-22T12:04:52;98966.99;;;23.41;35.44
62703;BME280;66022;50.448;18.122;2023-04-22T12:09:06;98963.45;;;23.34;34.52
62703;BME280;66022;50.448;18.122;2023-04-22T12:13:21;98960.19;;;23.32;36.53
62703;BME280;66022;50.448;18.122;2023-04-22T12:17:34;98958.47;;;23.26;37.44
62703;BME280;66022;50.448;18.122;2023-04-22T12:21:48;98956.52;;;23.20;36.35
62703;BME280;66022;50.448;18.122;2023-04-22T12:26:02;98955.29;;;23.11;31.19
62703;BME280;66022;50.448;18.122;2023-04-22T12:30:16;98954.25;;;23.04;35.50
62703;BME280;66022;50.448;18.122;2023-04-22T12:34:30;98952.20;;;22.98;37.31
62703;BME280;66022;50.448;18.122;2023-04-22T12:38:44;98948.69;;;22.87;36.10
62703;BME280;66022;50.448;18.122;2023-04-22T12:42:59;98944.67;;;22.81;38.03
62703;BME280;66022;50.448;18.122;2023-04-22T12:47:13;98941.57;;;22.74;36.47
62703;BME280;66022;50.448;18.122;2023-04-22T12:51:26;98938.97;;;22.69;36.73
62703;BME280;66022;50.448;18.122;2023-04-22T12:55:40;98935.03;;;22.65;39.16
62703;BME280;66022;50.448;18.122;2023-04-22T12:59:55;98932.62;;;22.63;36.59
62703;BME280;66022;50.448;18.122;2023-04-22T13:04:08;98929.88;;;22.61;35.92
62703;BME280;66022;50.448;18.122;2023-04-22T13:08:22;98926.58;;;22.54;36.39
62703;BME280;66022;50.448;18.122;2023-04-22T13:12:36;98923.61;;;22.53;37.15
62703;BME280;66022;50.448;18.122;2023-04-22T13:16:50;98920.67;;;22.49;36.27
62703;BME280;66022;50.448;18.122;2023-04-22T13:21:04;98917.66;;;22.49;35.37
62703;BME280;66022;50.448;18.122;2023-04-22T13:25:18;98913.89;;;22.49;38.02
62703;BME280;66022;50.448;18.122;2023-04-22T13:29:32;98911.11;;;22.48;37.01
62703;BME280;66022;50.448;18.122;2023-04-22T13:33:46;98907.67;;;22.49;38.80
62703;BME280;66022;50.448;18.122;2023-04-22T13:38:00;98904.13;;;22.44;35.50
62703;BME280;66022;50.448;18.122;2023-04-22T13:42:15;98900.97;;;22.43;37.94
62703;BME280;66022;50.448;18.122;2023-04-22T13:46:28;98897.06;;;22.37;33.68
62703;BME280;66022;50.448;18.122;2023-04-22T13:50:42;98894.45;;;22.37;35.50
62703;BME280;66022;50.448;18.122;2023-04-22T13:54:57;98890.77;;;22.34;39.52
62703;BME280;66022;50.448;18.122;2023-04-22T13:59:10;98887.86;;;22.30;38.88
62703;BME280;66022;50.448;18.122;2023-04-22T14:03:24;98886.77;;;22.31;39.15
62703;BME280;66022;50.448;18.122;2023-04-22T14:07:38;98885.96;;;22.30;37.97
62703;BME280;66022;50.448;18.122;2023-04-22T14:11:52;98884.42;;;22.30;39.21
62703;BME280;66022;50.448;18.122;2023-04-22T14:16:06;98883.22;;;22.26;33.00
62703;BME280;66022;50.448;18.122;2023-04-22T14:20:20;98881.44;;;22.25;39.33
62703;BME280;66022;50.448;18.122;2023-04-22T14:24:34;98878.83;;;22.26;39.52
62703;BME280;66022;50.448;18.122;2023-04-22T14:28:48;98875.06;;;22.22;38.86
62703;BME280;66022;50.448;18.122;2023-04-22T14:33:02;98871.98;;;22.22;38.62
62703;BME280;66022;50.448;18.122;2023-04-22T14:37:16;98868.59;;;22.17;38.71
62703;BME280;66022;50.448;18.122;2023-04-22T14:41:30;98866.99;;;22.14;39.31
62703;BME280;66022;50.448;18.122;2023-04-22T14:45:44;98863.37;;;22.10;38.95
62703;BME280;66022;50.448;18.122;2023-04-22T14:49:58;98861.63;;;22.04;38.43
62703;BME280;66022;50.448;18.122;2023-04-22T14:54:12;98860.16;;;21.99;40.27
62703;BME280;66022;50.448;18.122;2023-04-22T14:58:26;98857.64;;;21.87;40.13
62703;BME280;66022;50.448;18.122;2023-04-22T15:02:41;98855.35;;;21.83;41.84
62703;BME280;66022;50.448;18.122;2023-04-22T15:06:54;98852.47;;;21.77;38.90
62703;BME280;66022;50.448;18.122;2023-04-22T15:11:08;98848.22;;;21.73;40.27
62703;BME280;66022;50.448;18.122;2023-04-22T15:15:22;98844.89;;;21.70;39.74
62703;BME280;66022;50.448;18.122;2023-04-22T15:19:37;98841.79;;;21.65;39.69
62703;BME280;66022;50.448;18.122;2023-04-22T15:23:50;98838.98;;;21.62;40.04
62703;BME280;66022;50.448;18.122;2023-04-22T15:28:05;98836.35;;;21.52;39.26
62703;BME280;66022;50.448;18.122;2023-04-22T15:32:19;98834.65;;;21.46;40.39
62703;BME280;66022;50.448;18.122;2023-04-22T15:36:32;98832.54;;;21.36;36.96
62703;BME280;66022;50.448;18.122;2023-04-22T15:40:46;98831.03;;;21.30;41.02
62703;BME280;66022;50.448;18.122;2023-04-22T15:45:00;98829.99;;;21.23;41.56
62703;BME280;66022;50.448;18.122;2023-04-22T15:49:15;98828.89;;;21.14;39.81
62703;BME280;66022;50.448;18.122;2023-04-22T15:53:28;98827.71;;;21.07;39.67
62703;BME280;66022;50.448;18.122;2023-04-22T15:57:43;98825.75;;;20.98;40.07
62703;BME280;66022;50.448;18.122;2023-04-22T16:01:56;98825.26;;;20.89;40.45
62703;BME280;66022;50.448;18.122;2023-04-22T16:06:11;98826.12;;;20.77;36.33
62703;BME280;66022;50.448;18.122;2023-04-22T16:10:25;98825.62;;;20.68;41.41
62703;BME280;66022;50.448;18.122;2023-04-22T16:14:38;98824.31;;;20.60;41.36
62703;BME280;66022;50.448;18.122;2023-04-22T16:18:54;98822.00;;;20.49;40.79
62703;BME280;66022;50.448;18.122;2023-04-22T16:23:07;98820.20;;;20.42;42.84
62703;BME280;66022;50.448;18.122;2023-04-22T16:27:21;98818.33;;;20.32;40.58
62703;BME280;66022;50.448;18.122;2023-04-22T16:31:35;98816.71;;;20.23;39.98
62703;BME280;66022;50.448;18.122;2023-04-22T16:35:48;98814.43;;;20.14;37.79
62703;BME280;66022;50.448;18.122;2023-04-22T16:40:03;98812.27;;;20.04;40.05
62703;BME280;66022;50.448;18.122;2023-04-22T16:44:16;98810.17;;;19.96;40.18
62703;BME280;66022;50.448;18.122;2023-04-22T16:48:34;98807.45;;;19.84;40.22
62703;BME280;66022;50.448;18.122;2023-04-22T16:52:50;98805.33;;;19.79;40.98
62703;BME280;66022;50.448;18.122;2023-04-22T16:57:01;98802.79;;;19.74;39.74
62703;BME280;66022;50.448;18.122;2023-04-22T17:01:13;98800.73;;;19.74;42.17
62703;BME280;66022;50.448;18.122;2023-04-22T17:05:27;98797.96;;;19.74;42.35
62703;BME280;66022;50.448;18.122;2023-04-22T17:09:41;98795.43;;;19.70;43.37
62703;BME280;66022;50.448;18.122;2023-04-22T17:13:54;98794.12;;;19.67;43.44
62703;BME280;66022;50.448;18.122;2023-04-22T17:18:09;98792.17;;;19.57;42.90
62703;BME280;66022;50.448;18.122;2023-04-22T17:22:23;98789.81;;;19.50;43.71
62703;BME280;66022;50.448;18.122;2023-04-22T17:26:37;98788.00;;;19.36;43.04
62703;BME280;66022;50.448;18.122;2023-04-22T17:30:51;98785.79;;;19.22;43.91
62703;BME280;66022;50.448;18.122;2023-04-22T17:35:05;98784.09;;;19.03;45.75
62703;BME280;66022;50.448;18.122;2023-04-22T17:39:19;98783.44;;;18.84;45.78
62703;BME280;66022;50.448;18.122;2023-04-22T17:43:32;98782.72;;;18.67;46.66
62703;BME280;66022;50.448;18.122;2023-04-22T17:47:46;98782.15;;;18.49;47.20
62703;BME280;66022;50.448;18.122;2023-04-22T17:52:01;98781.31;;;18.33;46.84
62703;BME280;66022;50.448;18.122;2023-04-22T17:56:15;98782.03;;;18.12;43.46
62703;BME280;66022;50.448;18.122;2023-04-22T18:00:32;98784.58;;;17.97;46.95
62703;BME280;66022;50.448;18.122;2023-04-22T18:04:43;98786.45;;;17.83;47.40
62703;BME280;66022;50.448;18.122;2023-04-22T18:08:57;98789.31;;;17.63;47.58
62703;BME280;66022;50.448;18.122;2023-04-22T18:13:11;98792.63;;;17.48;47.46
62703;BME280;66022;50.448;18.122;2023-04-22T18:17:25;98794.70;;;17.33;48.14
62703;BME280;66022;50.448;18.122;2023-04-22T18:21:39;98796.59;;;17.19;48.66
62703;BME280;66022;50.448;18.122;2023-04-22T18:25:53;98798.33;;;17.00;46.73
62703;BME280;66022;50.448;18.122;2023-04-22T18:30:07;98800.28;;;16.85;47.02
62703;BME280;66022;50.448;18.122;2023-04-22T18:34:21;98801.62;;;16.73;47.19
62703;BME280;66022;50.448;18.122;2023-04-22T18:38:35;98803.67;;;16.55;47.60
62703;BME280;66022;50.448;18.122;2023-04-22T18:42:49;98804.72;;;16.41;48.36
62703;BME280;66022;50.448;18.122;2023-04-22T18:47:04;98806.22;;;16.26;48.38
62703;BME280;66022;50.448;18.122;2023-04-22T18:51:17;98806.75;;;16.15;48.86
62703;BME280;66022;50.448;18.122;2023-04-22T18:55:31;98806.22;;;16.03;49.24
62703;BME280;66022;50.448;18.122;2023-04-22T18:59:44;98807.40;;;15.92;50.34
62703;BME280;66022;50.448;18.122;2023-04-22T19:03:59;98809.09;;;15.82;51.05
62703;BME280;66022;50.448;18.122;2023-04-22T19:08:13;98810.18;;;15.68;51.22
62703;BME280;66022;50.448;18.122;2023-04-22T19:12:27;98811.28;;;15.58;52.06
62703;BME280;66022;50.448;18.122;2023-04-22T19:16:41;98811.11;;;15.41;53.20
62703;BME280;66022;50.448;18.122;2023-04-22T19:20:55;98810.17;;;15.23;54.50
62703;BME280;66022;50.448;18.122;2023-04-22T19:25:09;98809.63;;;15.05;54.99
62703;BME280;66022;50.448;18.122;2023-04-22T19:29:23;98809.11;;;14.85;55.63
62703;BME280;66022;50.448;18.122;2023-04-22T19:33:36;98808.61;;;14.71;55.48
62703;BME280;66022;50.448;18.122;2023-04-22T19:37:51;98807.03;;;14.57;54.62
62703;BME280;66022;50.448;18.122;2023-04-22T19:42:05;98805.61;;;14.45;53.69
62703;BME280;66022;50.448;18.122;2023-04-22T19:46:19;98804.66;;;14.30;54.79
62703;BME280;66022;50.448;18.122;2023-04-22T19:50:33;98804.75;;;14.21;54.38
62703;BME280;66022;50.448;18.122;2023-04-22T19:54:47;98804.19;;;14.12;54.44
62703;BME280;66022;50.448;18.122;2023-04-22T19:59:01;98803.13;;;14.03;53.86
62703;BME280;66022;50.448;18.122;2023-04-22T20:03:15;98801.68;;;13.98;53.88
62703;BME280;66022;50.448;18.122;2023-04-22T20:07:29;98800.64;;;13.91;55.27
62703;BME280;66022;50.448;18.122;2023-04-22T20:11:43;98799.24;;;13.86;55.47
62703;BME280;66022;50.448;18.122;2023-04-22T20:15:57;98797.00;;;13.79;49.90
62703;BME280;66022;50.448;18.122;2023-04-22T20:20:11;98795.20;;;13.76;54.65
62703;BME280;66022;50.448;18.122;2023-04-22T20:24:26;98794.06;;;13.73;54.41
62703;BME280;66022;50.448;18.122;2023-04-22T20:28:42;98793.63;;;13.67;55.48
62703;BME280;66022;50.448;18.122;2023-04-22T20:32:53;98792.89;;;13.63;55.94
62703;BME280;66022;50.448;18.122;2023-04-22T20:37:07;98793.56;;;13.56;54.98
62703;BME280;66022;50.448;18.122;2023-04-22T20:41:21;98793.09;;;13.51;55.31
62703;BME280;66022;50.448;18.122;2023-04-22T20:45:35;98793.02;;;13.45;52.92
62703;BME280;66022;50.448;18.122;2023-04-22T20:49:49;98792.78;;;13.39;53.46
62703;BME280;66022;50.448;18.122;2023-04-22T20:54:03;98793.22;;;13.35;53.42
62703;BME280;66022;50.448;18.122;2023-04-22T20:58:17;98794.27;;;13.26;54.28
62703;BME280;66022;50.448;18.122;2023-04-22T21:02:31;98795.00;;;13.23;52.57
62703;BME280;66022;50.448;18.122;2023-04-22T21:06:45;98796.06;;;13.17;53.73
62703;BME280;66022;50.448;18.122;2023-04-22T21:10:59;98798.99;;;13.11;55.27
62703;BME280;66022;50.448;18.122;2023-04-22T21:15:13;98800.65;;;13.04;54.77
62703;BME280;66022;50.448;18.122;2023-04-22T21:19:33;98802.26;;;12.95;55.50
62703;BME280;66022;50.448;18.122;2023-04-22T21:23:41;98802.45;;;12.86;55.76
62703;BME280;66022;50.448;18.122;2023-04-22T21:27:55;98802.11;;;12.75;56.46
62703;BME280;66022;50.448;18.122;2023-04-22T21:32:09;98801.86;;;12.66;56.74
62703;BME280;66022;50.448;18.122;2023-04-22T21:36:23;98802.72;;;12.52;58.70
62703;BME280;66022;50.448;18.122;2023-04-22T21:40:37;98804.00;;;12.45;56.51
62703;BME280;66022;50.448;18.122;2023-04-22T21:44:51;98804.92;;;12.40;56.16
62703;BME280;66022;50.448;18.122;2023-04-22T21:49:05;98804.36;;;12.35;55.48
62703;BME280;66022;50.448;18.122;2023-04-22T21:53:19;98804.49;;;12.34;54.78
62703;BME280;66022;50.448;18.122;2023-04-22T21:57:33;98804.55;;;12.34;55.32
62703;BME280;66022;50.448;18.122;2023-04-22T22:01:47;98804.69;;;12.38;54.97
62703;BME280;66022;50.448;18.122;2023-04-22T22:06:01;98804.61;;;12.40;53.98
62703;BME280;66022;50.448;18.122;2023-04-22T22:10:16;98804.63;;;12.44;54.00
62703;BME280;66022;50.448;18.122;2023-04-22T22:14:29;98805.82;;;12.48;55.26
62703;BME280;66022;50.448;18.122;2023-04-22T22:18:43;98805.92;;;12.52;54.16
62703;BME280;66022;50.448;18.122;2023-04-22T22:22:57;98806.30;;;12.56;54.37
62703;BME280;66022;50.448;18.122;2023-04-22T22:27:11;98807.56;;;12.57;54.80